Garyville, LA (70051)

3:36 PM CDT en Octubre 25, 2014 (GMT -0500)
Dickie's House | Change Station
CLOSE
Current Station
Estación meteorológica personal
Location: Gramercy, LA
Altura: 6 ft
Estaciones meteorológicas cercanas

Alt 6 ft 30.06 °N, 90.70 °W | Updated 13 minutes ago

Despejado
Despejado
80.5 ° F
Sensación térmica 82 ° F
N
0.0
Viento Variable Viento desde Norte

Hoy
Alta -- | Baja -- ° F
--% Posibilidad de precipitaciones
Ayer
Alta -- | Baja -- ° F
Precip. -- pul
7:11 AM 6:21 PM
Creciente, 4% visible
Presión 30.08 pul
Visibilidad 10.0 Millas
Nubes Despejado
Índice de calor 82 ° F
Punto de rocío 62 ° F
Humedad 54%
Precipitaciones 0.00 pul
Espesor de la nieve No disponible.
UV 4 de una escala de 12
Polen 3.20 de una escala de 12
Ozono Buena
PM2.5 Moderada
Flu Activity Sporadic
METAR KL38 252015Z AUTO 31005KT 10SM CLR 27/12 A3008 RMK AO2 T02690118

More Conditions Fewer Conditions

Presión 30.08 pul
Visibilidad 10.0 Millas
Nubes Despejado
Índice de calor 82 ° F
Punto de rocío 62 ° F
Humedad 54%
Precipitaciones 0.00 pul
Espesor de la nieve No disponible.
UV 4 de una escala de 12
Polen 3.20 de una escala de 12
Ozono Buena
PM2.5 Moderada
Flu Activity Sporadic
METAR KL38 252015Z AUTO 31005KT 10SM CLR 27/12 A3008 RMK AO2 T02690118

More Conditions Fewer Conditions

10-Day Weather Forecast

Almanac

Astronomía

Oct. 25, 2014 Salida Puesta
Hora real 7:11 AM CDT 6:21 PM CDT
Crepúsculo civil 6:46 AM CDT 6:45 PM CDT
Crepúsculo náutico 6:18 AM CDT 7:13 PM CDT
Crepúsculo astronómico 5:50 AM CDT 7:41 PM CDT
Luna 8:45 AM CDT 7:50 PM CDT
Horas de luz 11h 58m
Horas de luz
11h 10m
Tomorrow will be 1m 40s shorter.
Creciente, 4% of the Moon is Illuminated
Hoy
Creciente
Oct 30
Cuarto creciente
Nov 6
Luna llena
Nov 14
Cuarto menguante
Nov 22
Nueva

Extremos de hoy

Máximos del estado Bajos del estado

Community

WunderPhotos

Upload Photos

1,764,985 ¡fotos cargadas!

Nearby

Calidad del aire

  Calidad del aire Índice AQ Contaminante
Ayer Moderada
PM2.5
Ayer Buena
OZONE
Real Moderada
PM2.5
Real Buena
OZONE
Sábado Moderada
PM2.5
Sábado Moderada
OZONE
Domingo Moderada
OZONE
Domingo Moderada
PM2.5
Lunes Moderada
OZONE
Lunes Moderada
PM2.5

Grosos de nieve

Estación Profundido Altura
No tenemos constancia de nieve nueva.

Actividad de terremotos

Ciudad Distance Mag. Tiempo y dato
No hay informes recientes de la actividad sísmica.
Magnitud mínima muestra es 2,5.

Temperaturas de aguas costeras

Lugar Temperatura
New Canal, LA 71.1 ° F
Shell Beach, LA 68.0 ° F
Bayou Gauche, LA 72.0 ° F

Estaciones meteorológicas cercanas